Time;durP1;ratioP1;P1;durP2;ratioP2;P2;SDS_P1;SDS_P2;PMS_P1;PMS_P2;Temp;Humidity;BMP_temperature;BMP_pressure;BME280_temperature;BME280_humidity;BME280_pressure;Samples;Min_cycle;Max_cycle;Signal;HPM_P1;HPM_P2
2021/10/05 00:01:01;;;;;;;1.08;0.90;;;15.80;69.70;;;;;;4885857;29;20036;-83
2021/10/05 00:03:27;;;;;;;0.75;0.75;;;15.80;69.70;;;;;;4885302;29;20029;-83
2021/10/05 00:05:53;;;;;;;1.30;1.00;;;15.80;69.80;;;;;;4884807;29;20073;-83
2021/10/05 00:08:18;;;;;;;1.85;0.90;;;15.80;69.70;;;;;;4900960;29;20493;-83
2021/10/05 00:10:44;;;;;;;0.90;0.80;;;15.80;69.70;;;;;;4869830;29;20040;-83
2021/10/05 00:13:10;;;;;;;1.00;0.90;;;15.70;69.70;;;;;;4884813;29;20036;-83
2021/10/05 00:15:36;;;;;;;2.00;0.90;;;15.80;69.80;;;;;;4869579;29;20029;-83
2021/10/05 00:18:02;;;;;;;1.75;0.98;;;15.70;69.70;;;;;;4883418;29;20088;-86
2021/10/05 00:20:28;;;;;;;1.15;1.05;;;15.70;69.80;;;;;;4883982;29;20044;-82
2021/10/05 00:22:54;;;;;;;0.95;0.82;;;15.70;69.80;;;;;;4900673;29;20032;-82
2021/10/05 00:25:20;;;;;;;1.27;1.10;;;15.70;69.80;;;;;;4899778;29;20080;-83
2021/10/05 00:27:46;;;;;;;1.02;0.90;;;15.70;69.80;;;;;;4884181;29;20425;-82
2021/10/05 00:30:12;;;;;;;1.05;0.80;;;15.60;69.80;;;;;;4868858;29;20056;-84
2021/10/05 00:32:38;;;;;;;1.25;1.05;;;15.60;69.80;;;;;;4883795;29;20024;-83
2021/10/05 00:35:05;;;;;;;1.10;1.00;;;15.60;69.80;;;;;;4900559;29;20115;-85
2021/10/05 00:37:31;;;;;;;1.38;1.10;;;15.60;69.80;;;;;;4899460;29;20036;-81
2021/10/05 00:39:58;;;;;;;1.17;1.10;;;15.60;69.90;;;;;;4899354;29;20032;-83
2021/10/05 00:42:23;;;;;;;1.60;0.82;;;15.60;69.90;;;;;;4883892;29;20096;-83
2021/10/05 00:44:50;;;;;;;1.65;1.00;;;15.60;69.90;;;;;;4884021;29;20028;-83
2021/10/05 00:47:16;;;;;;;0.82;0.82;;;15.50;69.90;;;;;;4883991;29;20029;-83
2021/10/05 00:49:45;;;;;;;0.80;0.80;;;15.50;69.80;;;;;;4883887;29;20070;-83
2021/10/05 00:52:12;;;;;;;1.58;0.90;;;15.50;69.90;;;;;;4868457;29;20024;-83
2021/10/05 00:54:39;;;;;;;0.77;0.70;;;15.50;69.80;;;;;;4883948;29;20041;-83
2021/10/05 00:57:06;;;;;;;1.40;1.05;;;15.50;69.90;;;;;;4884132;29;20028;-83
2021/10/05 00:59:33;;;;;;;0.80;0.80;;;15.50;69.90;;;;;;4867762;29;20028;-83
2021/10/05 01:02:00;;;;;;;1.17;0.90;;;15.50;69.90;;;;;;4883681;29;20135;-83
2021/10/05 01:04:28;;;;;;;1.05;1.00;;;15.40;69.90;;;;;;4868066;29;20476;-82
2021/10/05 01:06:58;;;;;;;1.27;1.00;;;15.40;69.90;;;;;;4864843;29;20053;-83
2021/10/05 01:09:25;;;;;;;0.95;0.90;;;15.40;69.90;;;;;;4880452;29;20041;-83
2021/10/05 01:11:51;;;;;;;0.70;0.70;;;15.40;69.90;;;;;;4880669;29;20124;-82
2021/10/05 01:14:17;;;;;;;0.93;0.90;;;15.40;69.90;;;;;;4864992;29;20562;-83
2021/10/05 01:16:43;;;;;;;1.55;0.90;;;15.40;70.00;;;;;;4911461;29;20060;-83
2021/10/05 01:19:09;;;;;;;1.65;0.95;;;15.40;70.00;;;;;;4881291;29;20064;-84
2021/10/05 01:21:37;;;;;;;0.90;0.90;;;15.40;70.00;;;;;;4880290;29;20048;-82
2021/10/05 01:24:13;;;;;;;1.58;1.17;;;15.30;69.90;;;;;;4881052;29;20037;-84
2021/10/05 01:26:39;;;;;;;1.02;0.95;;;15.30;70.00;;;;;;4880090;29;20033;-83
2021/10/05 01:29:06;;;;;;;1.00;1.00;;;15.30;70.00;;;;;;4864949;29;20132;-82
2021/10/05 01:31:38;;;;;;;1.75;1.10;;;15.30;70.00;;;;;;4880696;29;20194;-83
2021/10/05 01:34:04;;;;;;;3.33;1.10;;;15.30;70.00;;;;;;4912303;29;20055;-83
2021/10/05 01:36:30;;;;;;;1.10;1.00;;;15.20;70.00;;;;;;4879919;29;20044;-82
2021/10/05 01:38:56;;;;;;;1.08;0.90;;;15.30;70.00;;;;;;4879733;29;20394;-83
2021/10/05 01:41:22;;;;;;;0.90;0.90;;;15.30;70.00;;;;;;4895293;29;20076;-84
2021/10/05 01:43:49;;;;;;;0.90;0.90;;;15.20;70.00;;;;;;4864708;29;20025;-84
2021/10/05 01:46:15;;;;;;;1.45;0.90;;;15.20;70.00;;;;;;4881253;29;20036;-84
2021/10/05 01:48:42;;;;;;;1.00;0.90;;;15.20;70.00;;;;;;4865158;29;20359;-84
2021/10/05 01:51:08;;;;;;;0.82;0.80;;;15.20;70.00;;;;;;4864450;29;20037;-83
2021/10/05 01:53:37;;;;;;;1.00;0.88;;;15.20;70.00;;;;;;4879699;29;20029;-83
2021/10/05 01:56:05;;;;;;;1.55;0.93;;;15.20;70.00;;;;;;4864584;29;20438;-84
2021/10/05 01:58:31;;;;;;;1.10;1.00;;;15.20;70.10;;;;;;4864595;29;20037;-83
2021/10/05 02:00:57;;;;;;;0.90;0.90;;;15.10;70.00;;;;;;4879805;29;20402;-83
2021/10/05 02:03:23;;;;;;;1.13;0.90;;;15.20;70.10;;;;;;4879969;29;20037;-84
2021/10/05 02:05:49;;;;;;;1.40;1.10;;;15.10;70.00;;;;;;4880092;29;20036;-83
2021/10/05 02:08:15;;;;;;;2.05;0.95;;;15.10;70.10;;;;;;4861764;29;20056;-85
2021/10/05 02:10:41;;;;;;;1.20;1.00;;;15.10;70.00;;;;;;4846588;29;20057;-84
2021/10/05 02:13:07;;;;;;;0.90;0.90;;;15.10;70.10;;;;;;4861855;29;20078;-83
2021/10/05 02:15:35;;;;;;;1.10;1.00;;;15.10;70.10;;;;;;4877163;29;20034;-83
2021/10/05 02:18:03;;;;;;;1.35;1.00;;;15.00;70.00;;;;;;4877532;29;20045;-83
2021/10/05 02:20:28;;;;;;;0.90;0.90;;;15.00;70.10;;;;;;4861742;29;20065;-84
2021/10/05 02:22:54;;;;;;;1.35;0.95;;;15.00;70.00;;;;;;4847055;29;20033;-83
2021/10/05 02:25:21;;;;;;;1.77;0.98;;;15.00;70.70;;;;;;4861627;29;20455;-83
2021/10/05 02:27:47;;;;;;;2.65;1.15;;;15.00;70.10;;;;;;4862661;29;20069;-81
2021/10/05 02:30:13;;;;;;;0.80;0.80;;;15.00;70.10;;;;;;4845494;29;20085;-83
2021/10/05 02:32:41;;;;;;;1.00;1.00;;;15.00;70.10;;;;;;4860495;29;20120;-83
2021/10/05 02:35:07;;;;;;;1.13;0.90;;;15.00;70.10;;;;;;4846326;29;20034;-83
2021/10/05 02:37:33;;;;;;;0.80;0.80;;;15.00;70.10;;;;;;4830139;29;20037;-83
2021/10/05 02:40:01;;;;;;;1.00;0.90;;;15.00;70.10;;;;;;4861108;29;20086;-83
2021/10/05 02:42:27;;;;;;;1.63;1.00;;;15.00;70.10;;;;;;4863696;29;20025;-83
2021/10/05 02:44:54;;;;;;;1.60;1.00;;;15.00;70.10;;;;;;4865092;29;20045;-82
2021/10/05 02:47:23;;;;;;;1.20;1.10;;;15.00;70.20;;;;;;4863958;29;20060;-84
2021/10/05 02:49:49;;;;;;;1.58;0.90;;;14.90;70.20;;;;;;4864998;29;20040;-83
2021/10/05 02:52:18;;;;;;;0.90;0.88;;;14.90;70.20;;;;;;4849017;29;20117;-82
2021/10/05 02:54:48;;;;;;;0.98;0.90;;;14.90;70.20;;;;;;4864876;29;20062;-83
2021/10/05 02:57:19;;;;;;;0.93;0.82;;;14.90;70.20;;;;;;4848751;29;20034;-83
2021/10/05 02:59:45;;;;;;;0.90;0.90;;;14.90;70.20;;;;;;4880592;29;20049;-83
2021/10/05 03:02:12;;;;;;;2.92;1.10;;;14.90;70.30;;;;;;4833127;29;20098;-83
2021/10/05 03:04:38;;;;;;;1.00;0.85;;;14.90;70.30;;;;;;4864136;29;20447;-83
2021/10/05 03:07:05;;;;;;;0.98;0.88;;;14.90;70.30;;;;;;4884074;29;20049;-83
2021/10/05 03:09:31;;;;;;;1.08;0.98;;;14.80;70.20;;;;;;4869965;29;20089;-84
2021/10/05 03:11:57;;;;;;;1.80;0.98;;;14.80;70.30;;;;;;4870277;29;20092;-82
2021/10/05 03:14:23;;;;;;;1.75;1.20;;;14.80;70.30;;;;;;4870464;29;20366;-81
2021/10/05 03:16:49;;;;;;;1.23;1.13;;;14.80;70.30;;;;;;4885052;29;20037;-83
2021/10/05 03:19:14;;;;;;;0.95;0.90;;;14.80;70.30;;;;;;4885430;29;20040;-84
2021/10/05 03:21:41;;;;;;;1.15;1.00;;;14.80;70.30;;;;;;4885424;29;20025;-83
2021/10/05 03:24:07;;;;;;;1.00;1.00;;;14.80;70.30;;;;;;4885164;29;20043;-83
2021/10/05 03:26:34;;;;;;;1.17;0.93;;;14.80;70.40;;;;;;4869576;29;20040;-82
2021/10/05 03:29:00;;;;;;;0.90;0.90;;;14.80;70.40;;;;;;4869540;29;20037;-83
2021/10/05 03:31:26;;;;;;;0.95;0.93;;;14.80;70.40;;;;;;4885790;29;20035;-82
2021/10/05 03:33:53;;;;;;;0.80;0.80;;;14.70;70.30;;;;;;4869448;29;20127;-83
2021/10/05 03:36:19;;;;;;;1.50;1.10;;;14.70;70.40;;;;;;4885442;29;20032;-84
2021/10/05 03:38:45;;;;;;;1.58;1.10;;;14.70;70.40;;;;;;4885605;29;20347;-83
2021/10/05 03:41:12;;;;;;;1.73;1.00;;;14.70;70.40;;;;;;4869714;29;20029;-83
2021/10/05 03:43:39;;;;;;;1.45;1.15;;;14.70;70.40;;;;;;4900542;29;20556;-84
2021/10/05 03:46:06;;;;;;;1.27;1.10;;;14.70;70.40;;;;;;4884896;29;20032;-83
2021/10/05 03:48:32;;;;;;;1.27;1.15;;;14.70;70.40;;;;;;4901582;29;20048;-82
2021/10/05 03:50:58;;;;;;;1.42;1.10;;;14.70;70.50;;;;;;4869602;29;20036;-83
2021/10/05 03:53:24;;;;;;;1.40;1.10;;;14.70;70.50;;;;;;4869436;29;20359;-83
2021/10/05 03:55:53;;;;;;;1.30;1.20;;;14.70;70.40;;;;;;4869503;29;20088;-83
2021/10/05 03:58:20;;;;;;;1.20;1.10;;;14.70;70.50;;;;;;4885048;29;20204;-83
2021/10/05 04:00:47;;;;;;;1.00;1.00;;;14.70;70.50;;;;;;4869570;29;20036;-82
2021/10/05 04:03:13;;;;;;;0.90;0.82;;;14.70;70.50;;;;;;4884552;29;20043;-82
2021/10/05 04:05:40;;;;;;;1.52;1.05;;;14.70;70.50;;;;;;4884667;29;20035;-83
2021/10/05 04:08:06;;;;;;;1.15;0.98;;;14.60;70.50;;;;;;4884310;29;20446;-83
2021/10/05 04:10:32;;;;;;;0.90;0.90;;;14.70;70.50;;;;;;4869000;29;20044;-84
2021/10/05 04:12:58;;;;;;;0.80;0.80;;;14.60;70.50;;;;;;4884623;29;20045;-82
2021/10/05 04:15:24;;;;;;;1.17;1.08;;;14.60;70.50;;;;;;4869105;29;20425;-87
2021/10/05 04:17:50;;;;;;;1.75;1.20;;;14.60;71.10;;;;;;4869114;29;20065;-83
2021/10/05 04:20:15;;;;;;;1.20;1.10;;;14.60;70.50;;;;;;4901231;29;20480;-82
2021/10/05 04:22:41;;;;;;;1.10;1.00;;;14.60;70.50;;;;;;4900122;29;20032;-82
2021/10/05 04:25:08;;;;;;;1.23;1.02;;;14.60;70.60;;;;;;4883911;29;20029;-85
2021/10/05 04:27:35;;;;;;;0.80;0.80;;;14.60;70.50;;;;;;4868568;29;20362;-83
2021/10/05 04:30:02;;;;;;;1.20;1.10;;;14.50;70.50;;;;;;4884056;29;20065;-83
2021/10/05 04:32:28;;;;;;;1.38;1.20;;;14.50;70.50;;;;;;4868407;29;20025;-83
2021/10/05 04:34:54;;;;;;;1.33;1.10;;;14.50;70.50;;;;;;4883946;29;20192;-82
2021/10/05 04:37:20;;;;;;;1.52;1.08;;;14.50;70.50;;;;;;4899604;29;20035;-83
2021/10/05 04:39:45;;;;;;;1.00;0.90;;;14.50;70.50;;;;;;4883876;29;20029;-83
2021/10/05 04:42:11;;;;;;;1.40;1.10;;;14.50;70.50;;;;;;4867909;29;20064;-80
2021/10/05 04:44:37;;;;;;;1.40;1.00;;;14.50;70.50;;;;;;4883459;29;20024;-83
2021/10/05 04:47:03;;;;;;;0.90;0.90;;;14.50;70.50;;;;;;4868047;29;20473;-80
2021/10/05 04:49:29;;;;;;;1.52;1.30;;;14.50;70.60;;;;;;4867673;29;20481;-80
2021/10/05 04:51:55;;;;;;;1.10;1.02;;;14.50;70.60;;;;;;4882937;29;20060;-81
2021/10/05 04:54:21;;;;;;;1.67;1.15;;;14.50;70.60;;;;;;4882739;29;20033;-81
2021/10/05 04:56:48;;;;;;;1.13;1.10;;;14.50;70.60;;;;;;4882865;29;20047;-80
2021/10/05 04:59:16;;;;;;;1.40;1.30;;;14.50;70.60;;;;;;4867888;29;20127;-80
2021/10/05 05:01:42;;;;;;;1.30;1.20;;;14.50;70.60;;;;;;4899919;29;20033;-80
2021/10/05 05:04:10;;;;;;;1.17;1.08;;;14.40;70.60;;;;;;4897913;29;20032;-81
2021/10/05 05:06:36;;;;;;;0.93;0.93;;;14.40;70.70;;;;;;4882500;29;20108;-81
2021/10/05 05:09:03;;;;;;;1.27;1.17;;;14.40;70.60;;;;;;4882673;29;20048;-80
2021/10/05 05:11:29;;;;;;;1.67;1.20;;;14.40;70.60;;;;;;4882771;29;20045;-81
2021/10/05 05:13:55;;;;;;;1.33;1.13;;;14.40;70.70;;;;;;4914455;29;20040;-79
2021/10/05 05:16:21;;;;;;;1.30;1.20;;;14.40;70.70;;;;;;4867097;29;20053;-79
2021/10/05 05:18:47;;;;;;;2.33;1.20;;;14.40;70.70;;;;;;4867661;29;20033;-84
2021/10/05 05:21:12;;;;;;;2.80;1.20;;;14.40;70.70;;;;;;4882771;29;20043;-81
2021/10/05 05:23:39;;;;;;;0.98;0.98;;;14.40;70.70;;;;;;4883661;29;20385;-82
2021/10/05 05:26:05;;;;;;;1.30;1.20;;;14.40;70.70;;;;;;4867705;29;20049;-81
2021/10/05 05:28:31;;;;;;;1.30;1.20;;;14.40;70.70;;;;;;4883075;29;20048;-81
2021/10/05 05:30:56;;;;;;;1.38;1.27;;;14.30;70.70;;;;;;4882943;29;20041;-80
2021/10/05 05:33:23;;;;;;;1.55;1.30;;;14.40;70.70;;;;;;4899747;29;20032;-79
2021/10/05 05:35:49;;;;;;;1.45;1.30;;;14.30;70.70;;;;;;4867313;29;20044;-80
2021/10/05 05:38:15;;;;;;;1.55;1.25;;;14.30;70.70;;;;;;4882853;29;20055;-81
2021/10/05 05:40:41;;;;;;;1.30;1.20;;;14.30;70.70;;;;;;4882738;29;20131;-80
2021/10/05 05:43:07;;;;;;;2.17;1.50;;;14.30;70.70;;;;;;4882957;29;20060;-79
2021/10/05 05:45:33;;;;;;;1.60;1.45;;;14.30;70.70;;;;;;4866879;29;20036;-79
2021/10/05 05:47:59;;;;;;;1.90;1.33;;;14.30;71.10;;;;;;4866932;29;20553;-80
2021/10/05 05:50:25;;;;;;;2.03;1.50;;;14.30;70.70;;;;;;4882736;29;20044;-80
2021/10/05 05:52:51;;;;;;;1.83;1.50;;;14.30;70.70;;;;;;4867085;29;20036;-79
2021/10/05 05:55:17;;;;;;;1.95;1.20;;;14.20;70.70;;;;;;4882658;29;20036;-79
2021/10/05 05:57:47;;;;;;;1.65;1.48;;;14.30;70.80;;;;;;4867818;29;20040;-79
2021/10/05 06:00:14;;;;;;;1.60;1.50;;;14.30;70.80;;;;;;4868635;29;20169;-79
2021/10/05 06:02:40;;;;;;;1.38;1.27;;;14.30;70.80;;;;;;4900014;29;20033;-83
2021/10/05 06:05:06;;;;;;;1.77;1.40;;;14.30;70.80;;;;;;4899116;29;20029;-80
2021/10/05 06:07:32;;;;;;;1.83;1.40;;;14.30;70.80;;;;;;4866830;29;20090;-80
2021/10/05 06:09:58;;;;;;;2.05;1.50;;;14.20;70.80;;;;;;4882635;29;20041;-81
2021/10/05 06:12:26;;;;;;;2.03;1.55;;;14.30;71.50;;;;;;4882932;29;20032;-80
2021/10/05 06:14:52;;;;;;;3.92;1.55;;;14.20;70.80;;;;;;4882598;29;20087;-82
2021/10/05 06:17:18;;;;;;;2.65;1.70;;;14.20;70.80;;;;;;4885304;29;20033;-80
2021/10/05 06:19:43;;;;;;;1.40;1.30;;;14.20;70.80;;;;;;4901876;29;20040;-80
2021/10/05 06:22:09;;;;;;;2.22;1.50;;;14.20;70.80;;;;;;4902004;29;20040;-80
2021/10/05 06:24:35;;;;;;;1.60;1.50;;;14.20;70.80;;;;;;4886041;29;20401;-79
2021/10/05 06:27:01;;;;;;;2.17;1.70;;;14.20;70.80;;;;;;4886340;29;20033;-80
2021/10/05 06:29:27;;;;;;;2.10;1.60;;;14.20;70.80;;;;;;4870979;29;20040;-82
2021/10/05 06:31:53;;;;;;;1.95;1.70;;;14.20;70.90;;;;;;4870801;29;20123;-82
2021/10/05 06:34:19;;;;;;;2.88;1.92;;;14.20;70.90;;;;;;4901684;29;20037;-81
2021/10/05 06:36:44;;;;;;;2.47;1.77;;;14.10;70.80;;;;;;4870344;29;20036;-82
2021/10/05 06:39:10;;;;;;;2.78;1.73;;;14.20;70.90;;;;;;4901880;29;20048;-83
2021/10/05 06:41:36;;;;;;;2.35;1.80;;;14.20;70.90;;;;;;4902467;29;20441;-82
2021/10/05 06:44:02;;;;;;;2.50;2.00;;;14.10;70.90;;;;;;4885657;29;20028;-82
2021/10/05 06:46:28;;;;;;;2.05;1.70;;;14.20;71.00;;;;;;4902848;29;20133;-82
2021/10/05 06:48:53;;;;;;;2.40;1.90;;;14.10;70.90;;;;;;4870893;29;20139;-82
2021/10/05 06:51:19;;;;;;;3.47;1.98;;;14.10;70.90;;;;;;4871207;29;20458;-81
2021/10/05 06:53:45;;;;;;;2.10;1.80;;;14.10;71.10;;;;;;4886715;29;20446;-82
2021/10/05 06:56:10;;;;;;;2.28;1.60;;;14.10;70.90;;;;;;4886528;29;20037;-83
2021/10/05 06:58:36;;;;;;;2.15;1.90;;;14.10;70.90;;;;;;4886594;29;20067;-81
2021/10/05 07:01:02;;;;;;;2.00;1.80;;;14.10;70.90;;;;;;4886204;29;20037;-82
2021/10/05 07:03:27;;;;;;;2.63;2.00;;;14.10;71.00;;;;;;4901807;29;20039;-81
2021/10/05 07:05:53;;;;;;;2.78;2.13;;;14.10;71.00;;;;;;4902255;29;20043;-82
2021/10/05 07:08:19;;;;;;;2.28;2.00;;;14.10;71.00;;;;;;4886066;29;20047;-83
2021/10/05 07:10:45;;;;;;;2.58;2.10;;;14.10;71.00;;;;;;4870128;29;20474;-82
2021/10/05 07:13:10;;;;;;;3.08;2.03;;;14.10;71.00;;;;;;4901751;29;20426;-82
2021/10/05 07:15:36;;;;;;;2.63;1.98;;;14.10;71.00;;;;;;4884764;29;20029;-82
2021/10/05 07:18:02;;;;;;;2.38;1.80;;;14.10;71.10;;;;;;4884686;29;20039;-82
2021/10/05 07:20:29;;;;;;;2.70;1.88;;;14.10;71.10;;;;;;4884145;29;20036;-82
2021/10/05 07:22:56;;;;;;;2.58;2.10;;;14.10;71.10;;;;;;4884230;29;20037;-82
2021/10/05 07:25:22;;;;;;;2.17;1.98;;;14.10;71.10;;;;;;4868997;29;20033;-82
2021/10/05 07:27:51;;;;;;;2.25;1.83;;;14.10;71.20;;;;;;4884140;29;20057;-82
2021/10/05 07:30:23;;;;;;;2.42;1.98;;;14.10;71.20;;;;;;4869142;29;20021;-81
2021/10/05 07:32:51;;;;;;;2.47;1.90;;;14.10;71.20;;;;;;4884523;29;20036;-81
2021/10/05 07:35:17;;;;;;;2.50;1.92;;;14.10;71.20;;;;;;4884116;29;20051;-82
2021/10/05 07:37:43;;;;;;;2.75;2.22;;;14.10;71.20;;;;;;4868499;29;20045;-81
2021/10/05 07:40:09;;;;;;;2.92;2.00;;;14.10;71.20;;;;;;4900223;29;20500;-80
2021/10/05 07:42:35;;;;;;;2.92;2.05;;;14.10;71.20;;;;;;4883687;29;20032;-80
2021/10/05 07:45:01;;;;;;;2.20;2.00;;;14.10;71.30;;;;;;4900021;29;20085;-77
2021/10/05 07:47:29;;;;;;;2.90;2.25;;;14.10;71.30;;;;;;4883904;29;20037;-79
2021/10/05 07:49:55;;;;;;;2.53;2.00;;;14.10;71.30;;;;;;4882861;29;20457;-80
2021/10/05 07:52:21;;;;;;;3.08;2.40;;;14.10;71.30;;;;;;4900307;29;20028;-78
2021/10/05 07:54:46;;;;;;;2.70;2.25;;;14.20;71.40;;;;;;4867551;29;20128;-78
2021/10/05 07:57:12;;;;;;;2.40;2.00;;;14.20;71.40;;;;;;4883057;29;20037;-79
2021/10/05 07:59:38;;;;;;;3.42;2.33;;;14.20;71.50;;;;;;4883815;29;20060;-78
2021/10/05 08:02:04;;;;;;;2.92;2.33;;;14.20;71.50;;;;;;4900118;29;20040;-78
2021/10/05 08:04:29;;;;;;;2.88;2.22;;;14.20;71.50;;;;;;4883461;29;20060;-78
2021/10/05 08:06:55;;;;;;;3.30;2.38;;;14.20;71.50;;;;;;4862422;29;1104083;-77
2021/10/05 08:09:21;;;;;;;2.80;2.08;;;14.20;71.50;;;;;;4883494;29;20489;-77
2021/10/05 08:11:47;;;;;;;3.67;2.53;;;14.20;71.50;;;;;;4900416;29;20039;-78
2021/10/05 08:14:13;;;;;;;3.20;2.30;;;14.20;71.50;;;;;;4900354;29;20083;-78
2021/10/05 08:16:39;;;;;;;3.33;2.05;;;14.20;71.50;;;;;;4883839;29;20028;-78
2021/10/05 08:19:05;;;;;;;2.63;1.98;;;14.20;71.50;;;;;;4868113;29;20045;-78
2021/10/05 08:21:31;;;;;;;3.13;2.38;;;14.30;71.60;;;;;;4868087;29;20470;-78
2021/10/05 08:23:56;;;;;;;3.03;2.28;;;14.30;71.60;;;;;;4900210;29;20035;-78
2021/10/05 08:26:23;;;;;;;2.47;2.10;;;14.30;71.60;;;;;;4868161;29;20040;-78
2021/10/05 08:28:50;;;;;;;2.88;2.08;;;14.30;71.70;;;;;;4883501;29;20367;-78
2021/10/05 08:31:18;;;;;;;2.42;2.00;;;14.30;71.70;;;;;;4868008;29;20084;-78
2021/10/05 08:33:46;;;;;;;1.75;1.63;;;14.30;71.70;;;;;;4900211;29;20038;-78
2021/10/05 08:36:12;;;;;;;2.25;1.92;;;14.30;71.70;;;;;;4882908;29;20024;-78
2021/10/05 08:38:40;;;;;;;2.30;1.92;;;14.30;71.70;;;;;;4882148;29;20032;-79
2021/10/05 08:41:07;;;;;;;3.15;2.20;;;14.40;71.80;;;;;;4883020;29;20036;-78
2021/10/05 08:43:34;;;;;;;2.63;2.10;;;14.40;71.80;;;;;;4883035;29;20047;-78
2021/10/05 08:46:02;;;;;;;3.20;2.25;;;14.40;71.90;;;;;;4883003;29;20032;-78
2021/10/05 08:48:34;;;;;;;2.88;2.17;;;14.40;71.90;;;;;;4883055;29;20036;-80
2021/10/05 08:51:00;;;;;;;3.17;2.08;;;14.40;71.90;;;;;;4899859;29;20032;-78
2021/10/05 08:53:28;;;;;;;2.70;1.90;;;14.50;71.90;;;;;;4882883;29;20032;-78
2021/10/05 08:55:54;;;;;;;2.55;1.98;;;14.50;71.90;;;;;;4867130;29;20479;-78
2021/10/05 08:58:20;;;;;;;3.08;2.20;;;14.50;71.80;;;;;;4899436;29;20047;-78
2021/10/05 09:00:46;;;;;;;2.83;2.15;;;14.50;71.80;;;;;;4898887;29;20044;-78
2021/10/05 09:03:24;;;;;;;3.03;2.05;;;14.60;72.40;;;;;;4899621;29;20037;-78
2021/10/05 09:05:51;;;;;;;1.92;1.80;;;14.60;71.80;;;;;;4882748;29;20039;-81
2021/10/05 09:08:24;;;;;;;2.50;1.98;;;14.70;71.70;;;;;;4899870;29;20485;-79
2021/10/05 09:11:02;;;;;;;3.00;2.00;;;14.70;71.70;;;;;;4867716;29;20359;-79
2021/10/05 09:13:32;;;;;;;2.75;2.05;;;14.80;71.70;;;;;;4866783;29;20040;-79
2021/10/05 09:15:58;;;;;;;2.53;1.92;;;14.80;71.60;;;;;;4882549;29;20171;-79
2021/10/05 09:18:24;;;;;;;2.63;1.92;;;14.90;71.50;;;;;;4899896;29;20115;-78
2021/10/05 09:20:49;;;;;;;2.13;1.77;;;14.90;71.50;;;;;;4867091;29;20047;-78
2021/10/05 09:23:15;;;;;;;2.30;1.80;;;15.00;71.40;;;;;;4882776;29;20119;-79
2021/10/05 09:25:46;;;;;;;2.60;1.90;;;15.10;71.40;;;;;;4882393;29;20093;-78
2021/10/05 09:28:22;;;;;;;2.47;1.83;;;15.10;71.40;;;;;;4882422;29;20036;-78
2021/10/05 09:31:03;;;;;;;4.38;1.85;;;15.20;71.40;;;;;;4882529;29;20028;-79
2021/10/05 09:33:31;;;;;;;2.03;1.58;;;15.20;71.30;;;;;;4882163;29;20033;-78
2021/10/05 09:35:58;;;;;;;2.05;1.52;;;15.30;71.20;;;;;;4881563;29;20123;-79
2021/10/05 09:38:25;;;;;;;3.85;1.85;;;15.40;71.10;;;;;;4881969;29;20063;-79
2021/10/05 09:41:04;;;;;;;2.70;2.03;;;15.40;71.10;;;;;;4882295;29;20063;-78
2021/10/05 09:43:31;;;;;;;2.03;1.70;;;15.40;71.10;;;;;;4882958;29;20437;-79
2021/10/05 09:46:14;;;;;;;2.83;1.75;;;15.50;71.00;;;;;;4913479;29;20033;-79
2021/10/05 09:48:42;;;;;;;2.13;1.70;;;15.60;71.10;;;;;;4866535;29;20066;-80
2021/10/05 09:51:18;;;;;;;2.42;1.55;;;15.60;70.90;;;;;;4882680;29;20500;-78
2021/10/05 09:53:44;;;;;;;2.78;1.80;;;15.70;70.90;;;;;;4914507;29;20056;-77
2021/10/05 09:56:12;;;;;;;1.65;1.55;;;15.80;70.80;;;;;;4898755;29;20407;-78
2021/10/05 09:58:38;;;;;;;1.98;1.60;;;15.80;70.70;;;;;;4866769;29;20083;-79
2021/10/05 10:01:05;;;;;;;1.65;1.55;;;15.90;70.70;;;;;;4898859;29;20044;-80
2021/10/05 10:03:32;;;;;;;2.92;1.33;;;16.00;70.70;;;;;;4866644;29;20021;-78
2021/10/05 10:05:59;;;;;;;1.58;1.48;;;16.10;70.70;;;;;;4866370;29;20036;-78
2021/10/05 10:08:27;;;;;;;1.85;1.50;;;16.10;70.60;;;;;;4882356;29;20040;-79
2021/10/05 10:10:54;;;;;;;2.15;1.42;;;16.20;70.60;;;;;;4898189;29;20025;-78
2021/10/05 10:13:21;;;;;;;1.35;1.25;;;16.20;70.50;;;;;;4866931;29;20070;-78
2021/10/05 10:15:48;;;;;;;2.00;1.50;;;16.40;70.60;;;;;;4866684;29;20045;-79
2021/10/05 10:18:15;;;;;;;2.67;1.33;;;16.40;70.50;;;;;;4867045;29;20423;-79
2021/10/05 10:20:50;;;;;;;1.95;1.48;;;16.50;70.50;;;;;;4898384;29;20040;-79
2021/10/05 10:23:24;;;;;;;1.38;1.27;;;16.60;70.60;;;;;;4898678;29;20097;-79
2021/10/05 10:26:02;;;;;;;1.73;1.20;;;16.60;70.50;;;;;;4881879;29;20040;-79
2021/10/05 10:28:35;;;;;;;1.92;1.23;;;16.70;70.40;;;;;;4898119;29;20112;-79
2021/10/05 10:31:26;;;;;;;1.52;1.20;;;16.80;70.30;;;;;;4881566;29;20032;-78
2021/10/05 10:33:53;;;;;;;1.75;1.10;;;16.90;70.30;;;;;;4888127;29;20045;-78
2021/10/05 10:36:40;;;;;;;2.42;1.10;;;17.00;70.30;;;;;;4866550;29;20037;-78
2021/10/05 10:39:19;;;;;;;1.77;1.23;;;17.00;70.40;;;;;;4898925;29;20169;-80
2021/10/05 10:41:53;;;;;;;1.35;1.15;;;17.10;70.40;;;;;;4882147;29;20047;-79
2021/10/05 10:44:28;;;;;;;1.30;1.20;;;17.20;70.50;;;;;;4881927;29;20180;-79
2021/10/05 10:47:16;;;;;;;1.35;1.00;;;17.20;70.40;;;;;;4883016;29;20048;-78
2021/10/05 10:50:00;;;;;;;1.38;1.08;;;17.30;70.60;;;;;;4913442;29;20033;-78
2021/10/05 10:52:29;;;;;;;1.88;1.10;;;17.30;70.60;;;;;;4881606;29;20028;-78
2021/10/05 10:54:56;;;;;;;1.20;1.10;;;17.40;70.70;;;;;;4881671;29;20104;-79
2021/10/05 10:57:47;;;;;;;1.30;1.02;;;17.50;70.90;;;;;;4898467;29;20036;-79
2021/10/05 11:00:22;;;;;;;1.08;0.98;;;17.50;71.20;;;;;;4866088;29;20045;-78
2021/10/05 11:02:54;;;;;;;1.60;1.10;;;17.60;71.20;;;;;;4883544;29;20462;-78
2021/10/05 11:05:21;;;;;;;1.42;1.17;;;17.60;71.30;;;;;;4885474;29;20120;-79
2021/10/05 11:07:52;;;;;;;1.02;1.00;;;17.60;71.40;;;;;;4870182;29;20049;-79
2021/10/05 11:10:24;;;;;;;1.45;1.13;;;17.70;71.50;;;;;;4869942;29;20386;-78
2021/10/05 11:13:03;;;;;;;2.47;1.20;;;17.70;71.60;;;;;;4884951;29;20032;-78
2021/10/05 11:15:41;;;;;;;1.10;1.00;;;17.80;71.70;;;;;;4902394;29;20555;-80
2021/10/05 11:18:16;;;;;;;1.35;1.00;;;17.80;71.80;;;;;;4885286;29;20103;-79
2021/10/05 11:20:49;;;;;;;1.20;1.02;;;17.90;71.90;;;;;;4901510;29;20115;-79
2021/10/05 11:23:16;;;;;;;1.00;1.00;;;17.90;71.80;;;;;;4901936;29;20388;-80
2021/10/05 11:25:53;;;;;;;1.30;1.20;;;18.00;71.90;;;;;;4869330;29;20426;-80
2021/10/05 11:28:25;;;;;;;1.08;0.98;;;18.00;71.90;;;;;;4869290;29;20545;-79
2021/10/05 11:31:00;;;;;;;1.27;0.93;;;18.00;71.90;;;;;;4869221;29;20028;-79
2021/10/05 11:33:38;;;;;;;1.80;1.23;;;18.00;72.00;;;;;;4869315;29;20025;-80
2021/10/05 11:36:12;;;;;;;1.63;1.10;;;18.10;72.10;;;;;;4885033;29;20040;-81
2021/10/05 11:38:39;;;;;;;2.33;1.20;;;18.20;72.10;;;;;;4884312;29;20564;-79
2021/10/05 11:41:05;;;;;;;1.77;0.90;;;18.20;72.00;;;;;;4869134;29;20119;-80
2021/10/05 11:43:44;;;;;;;1.92;1.23;;;18.20;72.00;;;;;;4885038;29;20033;-83
2021/10/05 11:46:15;;;;;;;1.20;1.10;;;18.20;72.80;;;;;;4885393;29;20111;-80
2021/10/05 11:48:43;;;;;;;1.35;1.08;;;18.30;72.10;;;;;;4868475;29;20033;-80
2021/10/05 11:51:10;;;;;;;1.33;1.00;;;18.30;72.00;;;;;;4884126;29;20056;-78
2021/10/05 11:53:37;;;;;;;1.05;1.00;;;18.40;72.20;;;;;;4869080;29;20044;-79
2021/10/05 11:56:08;;;;;;;1.23;1.00;;;18.40;72.10;;;;;;4869377;29;20043;-78
2021/10/05 11:58:42;;;;;;;1.27;1.00;;;18.40;72.20;;;;;;4901237;29;20438;-79
2021/10/05 12:01:27;;;;;;;1.63;1.00;;;18.40;72.20;;;;;;4884434;29;20496;-78
2021/10/05 12:04:14;;;;;;;1.42;1.00;;;18.50;72.20;;;;;;4884085;29;20493;-79
2021/10/05 12:06:49;;;;;;;1.00;1.00;;;18.50;72.10;;;;;;4900357;29;20070;-78
2021/10/05 12:09:24;;;;;;;1.15;1.02;;;18.60;72.10;;;;;;4883546;29;20036;-78
2021/10/05 12:11:51;;;;;;;0.90;0.90;;;18.60;72.10;;;;;;4883921;29;20060;-80
2021/10/05 12:14:18;;;;;;;0.95;0.90;;;18.60;72.00;;;;;;4882960;29;20411;-79
2021/10/05 12:17:02;;;;;;;1.05;0.95;;;18.60;72.10;;;;;;4883842;29;20397;-79
2021/10/05 12:19:37;;;;;;;1.20;1.10;;;18.60;72.10;;;;;;4884063;29;20032;-78
2021/10/05 12:22:08;;;;;;;1.10;1.00;;;18.70;72.10;;;;;;4883669;29;20101;-79
2021/10/05 12:24:47;;;;;;;0.90;0.90;;;18.70;72.00;;;;;;4900010;29;20120;-80
2021/10/05 12:27:19;;;;;;;1.17;1.05;;;18.70;72.00;;;;;;4868875;29;20063;-80
2021/10/05 12:29:47;;;;;;;1.02;0.93;;;18.80;72.00;;;;;;4883925;29;20088;-82
2021/10/05 12:32:13;;;;;;;1.35;1.10;;;18.80;71.90;;;;;;4868066;29;20383;-79
2021/10/05 12:34:40;;;;;;;1.15;0.88;;;18.80;71.90;;;;;;4867896;29;20036;-78
2021/10/05 12:37:08;;;;;;;1.48;0.90;;;18.80;71.90;;;;;;4883331;29;20187;-78
2021/10/05 12:39:34;;;;;;;0.90;0.80;;;18.80;71.90;;;;;;4867805;29;20060;-78
2021/10/05 12:42:04;;;;;;;1.33;1.10;;;18.90;71.90;;;;;;4900154;29;20037;-79
2021/10/05 12:44:35;;;;;;;1.08;0.98;;;18.90;71.90;;;;;;4883171;29;20052;-79
2021/10/05 12:47:05;;;;;;;1.15;1.02;;;18.90;71.90;;;;;;4883400;29;20458;-79
2021/10/05 12:49:32;;;;;;;0.70;0.70;;;18.90;71.90;;;;;;4899881;29;20028;-80
2021/10/05 12:51:59;;;;;;;1.30;1.00;;;19.00;71.90;;;;;;4883318;29;20029;-78